Time;durP1;ratioP1;P1;durP2;ratioP2;P2;SDS_P1;SDS_P2;PMS_P1;PMS_P2;Temp;Humidity;BMP_temperature;BMP_pressure;BME280_temperature;BME280_humidity;BME280_pressure;Samples;Min_cycle;Max_cycle;Signal;HPM_P1;HPM_P2
2022/08/28 00:00:56;;;;;;;22.58;9.28;;;;;;;20.02;62.63;99624.56;1748061;82;21030;-66
2022/08/28 00:03:23;;;;;;;27.05;9.13;;;;;;;20.10;61.96;99625.59;1747919;82;21045;-67
2022/08/28 00:05:49;;;;;;;27.37;9.20;;;;;;;20.21;61.31;99627.36;1748201;81;21042;-67
2022/08/28 00:08:16;;;;;;;25.35;9.25;;;;;;;20.37;61.21;99626.05;1748183;82;21258;-68
2022/08/28 00:10:43;;;;;;;20.75;9.35;;;;;;;20.45;61.44;99630.23;1748094;82;21564;-66
2022/08/28 00:13:17;;;;;;;27.58;9.23;;;;;;;20.51;61.81;99635.06;1748367;82;21033;-67
2022/08/28 00:15:40;;;;;;;27.40;9.20;;;;;;;20.55;61.53;99632.49;1747658;82;21088;-67
2022/08/28 00:18:07;;;;;;;22.80;9.95;;;;;;;20.57;61.72;99624.34;1748380;82;21048;-67
2022/08/28 00:20:34;;;;;;;27.50;9.15;;;;;;;20.60;61.80;99627.62;1748119;82;22137;-67
2022/08/28 00:23:00;;;;;;;24.23;9.23;;;;;;;20.64;61.74;99626.38;1748143;82;21529;-68
2022/08/28 00:25:28;;;;;;;25.48;9.38;;;;;;;20.67;61.43;99627.93;1748401;81;21097;-67
2022/08/28 00:27:57;;;;;;;19.50;9.10;;;;;;;20.69;61.28;99624.14;1748296;82;21069;-67
2022/08/28 00:30:35;;;;;;;23.05;8.60;;;;;;;20.72;61.08;99622.52;1748262;82;22172;-67
2022/08/28 00:33:10;;;;;;;17.45;8.30;;;;;;;20.74;60.62;99623.73;1747928;81;21102;-67
2022/08/28 00:35:39;;;;;;;26.68;8.85;;;;;;;20.74;60.26;99624.58;1747830;81;21217;-70
2022/08/28 00:38:09;;;;;;;27.62;9.20;;;;;;;20.76;60.11;99626.29;1748200;82;21045;-69
2022/08/28 00:40:36;;;;;;;19.65;8.50;;;;;;;20.77;60.45;99625.30;1748201;82;21097;-66
2022/08/28 00:43:03;;;;;;;23.80;8.05;;;;;;;20.75;60.32;99622.73;1748242;81;21032;-68
2022/08/28 00:45:31;;;;;;;28.98;8.98;;;;;;;20.74;60.28;99629.92;1748033;81;21124;-67
2022/08/28 00:47:58;;;;;;;27.75;8.88;;;;;;;20.74;60.66;99625.91;1748041;81;22087;-66
2022/08/28 00:50:28;;;;;;;20.08;9.10;;;;;;;20.73;60.97;99626.91;1748201;82;21038;-70
2022/08/28 00:52:58;;;;;;;22.50;9.15;;;;;;;20.71;61.18;99629.37;1748611;82;21058;-68
2022/08/28 00:55:26;;;;;;;23.27;9.08;;;;;;;20.71;61.53;99638.23;1718842;82;21092;-69
2022/08/28 00:57:58;;;;;;;19.37;9.13;;;;;;;20.69;61.82;99629.48;1718699;83;21087;-68
2022/08/28 01:00:34;;;;;;;24.20;9.00;;;;;;;20.69;61.96;99626.81;1723045;82;21205;-68
2022/08/28 01:03:01;;;;;;;27.62;9.28;;;;;;;20.68;62.37;99625.13;1748113;82;21095;-69
2022/08/28 01:05:28;;;;;;;21.77;9.48;;;;;;;20.65;62.65;99617.35;1747935;82;21022;-66
2022/08/28 01:07:57;;;;;;;23.85;9.43;;;;;;;20.62;63.02;99613.62;1748009;82;21062;-68
2022/08/28 01:10:26;;;;;;;32.15;10.18;;;;;;;20.60;62.92;99602.20;1747971;82;21192;-68
2022/08/28 01:12:53;;;;;;;26.15;10.60;;;;;;;20.58;62.97;99601.48;1747919;82;21021;-67
2022/08/28 01:15:25;;;;;;;23.25;9.18;;;;;;;20.57;63.25;99603.81;1720929;82;21520;-67
2022/08/28 01:17:55;;;;;;;21.65;9.55;;;;;;;20.55;63.69;99608.42;1748080;82;21033;-67
2022/08/28 01:20:26;;;;;;;24.12;10.25;;;;;;;20.52;64.27;99605.98;1748343;82;21101;-67
2022/08/28 01:23:39;;;;;;;23.10;9.88;;;;;;;20.49;64.85;99607.10;1748032;82;21096;-68
2022/08/28 01:26:09;;;;;;;23.75;9.40;;;;;;;20.44;65.10;99601.31;1747982;82;21093;-68
2022/08/28 01:28:35;;;;;;;25.37;9.98;;;;;;;20.41;65.42;99596.73;1748336;82;21323;-66
2022/08/28 01:31:02;;;;;;;19.98;9.25;;;;;;;20.37;65.60;99591.30;1748184;82;21371;-69
2022/08/28 01:33:28;;;;;;;27.17;9.98;;;;;;;20.30;65.80;99589.14;1748134;82;21080;-68
2022/08/28 01:35:56;;;;;;;27.42;11.15;;;;;;;20.31;66.00;99592.19;1744614;81;21178;-68
2022/08/28 01:38:22;;;;;;;25.85;10.10;;;;;;;20.26;66.13;99593.05;1742055;82;21076;-69
2022/08/28 01:40:52;;;;;;;24.82;10.50;;;;;;;20.25;66.24;99587.85;1742335;82;21547;-67
2022/08/28 01:43:21;;;;;;;27.17;10.20;;;;;;;20.21;66.45;99577.89;1713331;82;21093;-66
2022/08/28 01:45:52;;;;;;;21.75;10.65;;;;;;;20.17;66.60;99583.14;1742530;82;21093;-69
2022/08/28 01:48:20;;;;;;;29.67;9.98;;;;;;;20.14;66.85;99576.73;1742287;82;21139;-67
2022/08/28 01:50:47;;;;;;;30.43;10.23;;;;;;;20.10;67.01;99575.30;1741918;82;21042;-68
2022/08/28 01:53:16;;;;;;;24.02;10.15;;;;;;;20.10;67.07;99569.95;1738607;82;21139;-68
2022/08/28 01:55:43;;;;;;;25.88;10.32;;;;;;;20.08;67.21;99563.42;1697415;84;22208;-67
2022/08/28 01:58:10;;;;;;;26.42;10.43;;;;;;;20.07;67.01;99558.19;1697806;83;21103;-68
2022/08/28 02:00:37;;;;;;;29.18;10.50;;;;;;;20.07;66.71;99554.18;1708513;82;21282;-68
2022/08/28 02:03:05;;;;;;;25.52;9.30;;;;;;;20.08;66.23;99552.73;1742527;82;22214;-68
2022/08/28 02:05:33;;;;;;;28.85;9.50;;;;;;;20.06;66.08;99551.13;1742250;82;21133;-68
2022/08/28 02:08:01;;;;;;;25.82;9.90;;;;;;;20.08;65.78;99547.38;1742404;82;20971;-68
2022/08/28 02:10:31;;;;;;;27.52;9.30;;;;;;;20.10;65.61;99551.23;1742290;82;21026;-67
2022/08/28 02:12:58;;;;;;;29.23;8.93;;;;;;;20.11;65.21;99551.61;1742661;82;21106;-67
2022/08/28 02:15:27;;;;;;;22.35;8.88;;;;;;;20.12;64.79;99554.13;1742340;82;21038;-68
2022/08/28 02:17:54;;;;;;;27.98;8.20;;;;;;;20.14;64.68;99559.36;1742443;82;21057;-68
2022/08/28 02:20:22;;;;;;;31.68;8.25;;;;;;;20.15;64.34;99558.36;1742099;82;21061;-66
2022/08/28 02:22:50;;;;;;;29.30;9.30;;;;;;;20.15;64.06;99557.03;1742402;82;21061;-69
2022/08/28 02:25:17;;;;;;;25.32;9.55;;;;;;;20.16;64.41;99558.73;1742399;82;21312;-67
2022/08/28 02:27:44;;;;;;;26.73;8.58;;;;;;;20.18;64.41;99566.14;1742309;82;21084;-67
2022/08/28 02:30:12;;;;;;;29.57;9.15;;;;;;;20.18;64.60;99568.81;1742377;82;21092;-67
2022/08/28 02:32:39;;;;;;;26.07;9.43;;;;;;;20.15;64.92;99569.05;1742391;82;21080;-67
2022/08/28 02:35:07;;;;;;;23.57;8.60;;;;;;;20.15;64.87;99583.76;1741958;80;21003;-67
2022/08/28 02:37:34;;;;;;;24.40;8.58;;;;;;;20.11;64.35;99577.84;1734350;82;21108;-67
2022/08/28 02:40:05;;;;;;;31.95;9.75;;;;;;;20.10;64.48;99573.95;1733962;82;21034;-67
2022/08/28 02:42:32;;;;;;;33.25;8.58;;;;;;;20.08;64.59;99573.23;1734582;82;20999;-68
2022/08/28 02:44:58;;;;;;;28.45;9.23;;;;;;;20.06;65.43;99561.83;1734168;82;21097;-67
2022/08/28 02:47:24;;;;;;;29.90;8.83;;;;;;;20.02;65.70;99564.42;1734375;82;21037;-67
2022/08/28 02:49:51;;;;;;;25.88;8.60;;;;;;;19.98;65.77;99568.33;1734393;82;21151;-68
2022/08/28 02:52:22;;;;;;;27.27;9.30;;;;;;;19.95;65.82;99567.27;1734549;82;21093;-67
2022/08/28 02:54:48;;;;;;;21.75;8.75;;;;;;;19.91;66.19;99571.52;1701684;82;21086;-68
2022/08/28 02:57:15;;;;;;;32.53;8.68;;;;;;;19.91;65.99;99574.19;1690152;84;21147;-67
2022/08/28 02:59:42;;;;;;;29.30;8.75;;;;;;;19.89;66.29;99572.13;1689728;84;21095;-69
2022/08/28 03:02:09;;;;;;;35.58;9.65;;;;;;;19.89;66.55;99579.30;1729475;82;21908;-68
2022/08/28 03:04:36;;;;;;;29.35;9.73;;;;;;;19.88;66.64;99582.97;1734263;82;21062;-68
2022/08/28 03:07:04;;;;;;;35.65;9.58;;;;;;;19.86;66.80;99594.27;1734193;82;21065;-69
2022/08/28 03:09:30;;;;;;;42.90;9.88;;;;;;;19.82;67.07;99592.83;1734459;82;21042;-70
2022/08/28 03:11:58;;;;;;;24.37;8.93;;;;;;;19.79;67.83;99601.95;1734313;82;21641;-69
2022/08/28 03:14:25;;;;;;;34.63;9.48;;;;;;;19.76;67.93;99595.54;1734335;82;21593;-69
2022/08/28 03:16:52;;;;;;;30.12;9.20;;;;;;;19.75;67.98;99595.66;1734339;82;21011;-67
2022/08/28 03:19:18;;;;;;;27.98;9.58;;;;;;;19.74;68.48;99597.95;1734406;82;21411;-67
2022/08/28 03:21:45;;;;;;;27.42;9.45;;;;;;;19.72;68.83;99607.45;1734614;82;21089;-68
2022/08/28 03:24:12;;;;;;;30.90;10.53;;;;;;;19.69;69.54;99610.36;1734356;82;20998;-68
2022/08/28 03:26:38;;;;;;;36.85;10.40;;;;;;;19.66;69.92;99617.27;1734192;82;21144;-69
2022/08/28 03:29:05;;;;;;;34.85;11.10;;;;;;;19.60;70.33;99619.10;1734385;82;21046;-67
2022/08/28 03:31:34;;;;;;;35.28;11.65;;;;;;;19.54;71.28;99624.97;1734506;82;21078;-67
2022/08/28 03:34:00;;;;;;;31.12;11.60;;;;;;;19.48;72.50;99632.48;1734393;82;21135;-67
2022/08/28 03:36:28;;;;;;;27.90;11.97;;;;;;;19.48;73.21;99639.66;1738363;81;21061;-68
2022/08/28 03:38:56;;;;;;;26.17;12.88;;;;;;;19.45;74.31;99652.78;1742266;82;21221;-66
2022/08/28 03:41:25;;;;;;;28.07;12.85;;;;;;;19.44;75.04;99660.91;1742562;82;21077;-67
2022/08/28 03:43:52;;;;;;;32.15;13.50;;;;;;;19.39;75.16;99662.61;1742256;82;21081;-67
2022/08/28 03:46:22;;;;;;;28.55;12.68;;;;;;;19.36;74.44;99673.55;1742624;82;21050;-65
2022/08/28 03:48:49;;;;;;;26.50;12.23;;;;;;;19.28;74.22;99665.33;1742474;82;21128;-67
2022/08/28 03:51:19;;;;;;;21.97;12.50;;;;;;;19.22;74.33;99665.81;1742190;82;21634;-66
2022/08/28 03:53:46;;;;;;;20.03;12.20;;;;;;;19.17;74.12;99660.84;1742817;82;21596;-68
2022/08/28 03:56:17;;;;;;;17.95;12.30;;;;;;;19.14;74.08;99670.91;1742328;82;21915;-69
2022/08/28 03:58:43;;;;;;;;;;;;;;;19.14;74.10;99677.12;1744920;82;21546;-68
2022/08/28 04:01:10;;;;;;;21.68;12.03;;;;;;;19.16;74.14;99679.64;1742546;82;20181;-66
2022/08/28 04:03:37;;;;;;;28.50;13.58;;;;;;;19.15;74.14;99669.95;1742453;82;21851;-68
2022/08/28 04:06:05;;;;;;;25.70;13.22;;;;;;;19.16;73.63;99666.30;1741929;82;21062;-68
2022/08/28 04:08:32;;;;;;;30.20;13.13;;;;;;;19.16;73.34;99661.80;1742588;82;21085;-67
2022/08/28 04:10:59;;;;;;;30.50;12.95;;;;;;;19.19;73.36;99666.08;1742196;82;21022;-68
2022/08/28 04:13:26;;;;;;;22.55;13.35;;;;;;;19.20;73.39;99663.75;1742196;82;21073;-70
2022/08/28 04:16:09;;;;;;;27.60;13.62;;;;;;;19.19;73.52;99663.41;1742769;82;21169;-70
2022/08/28 04:18:40;;;;;;;21.55;11.90;;;;;;;19.19;72.89;99662.91;1742258;82;20991;-67
2022/08/28 04:21:10;;;;;;;24.77;12.25;;;;;;;19.15;72.96;99660.12;1742326;82;21116;-69
2022/08/28 04:23:39;;;;;;;32.35;13.70;;;;;;;19.15;72.74;99659.28;1742395;82;21037;-67
2022/08/28 04:26:06;;;;;;;28.30;14.35;;;;;;;19.11;72.83;99655.15;1742616;81;21106;-68
2022/08/28 04:28:34;;;;;;;29.60;13.05;;;;;;;19.10;72.94;99658.80;1742350;82;21210;-69
2022/08/28 04:31:01;;;;;;;31.65;13.88;;;;;;;19.12;73.15;99656.83;1742684;82;21000;-67
2022/08/28 04:33:27;;;;;;;27.35;13.58;;;;;;;19.13;73.24;99657.21;1742532;82;21057;-66
2022/08/28 04:35:54;;;;;;;28.98;14.55;;;;;;;19.16;73.20;99648.95;1741104;81;21368;-68
2022/08/28 04:38:21;;;;;;;29.95;14.33;;;;;;;19.19;72.92;99645.56;1734201;82;21018;-68
2022/08/28 04:40:47;;;;;;;28.77;13.60;;;;;;;19.22;72.83;99647.12;1733970;82;21215;-67
2022/08/28 04:43:14;;;;;;;29.07;14.23;;;;;;;19.25;73.07;99650.87;1734061;82;21050;-68
2022/08/28 04:45:44;;;;;;;29.50;13.65;;;;;;;19.28;72.64;99641.30;1734317;82;21057;-68
2022/08/28 04:48:12;;;;;;;28.70;13.00;;;;;;;19.32;72.60;99647.23;1734614;82;21581;-67
2022/08/28 04:50:45;;;;;;;34.48;13.83;;;;;;;19.35;72.46;99645.17;1734020;82;21725;-67
2022/08/28 04:53:13;;;;;;;27.13;12.25;;;;;;;19.36;72.48;99642.84;1732522;82;21081;-68
2022/08/28 04:55:46;;;;;;;25.12;13.05;;;;;;;19.38;71.59;99641.40;1704707;84;21115;-68
2022/08/28 04:58:12;;;;;;;24.85;12.85;;;;;;;19.39;71.83;99637.25;1704838;84;21127;-69
2022/08/28 05:00:42;;;;;;;25.75;10.78;;;;;;;19.43;71.81;99640.53;1704780;84;21030;-68
2022/08/28 05:03:11;;;;;;;21.73;11.50;;;;;;;19.43;71.00;99638.70;1705056;84;21600;-68
2022/08/28 05:05:44;;;;;;;32.08;12.03;;;;;;;19.44;70.77;99638.20;1704722;84;21107;-67
2022/08/28 05:08:11;;;;;;;35.60;12.53;;;;;;;19.45;70.49;99636.75;1704393;83;21079;-66
2022/08/28 05:10:39;;;;;;;32.73;12.80;;;;;;;19.49;70.60;99642.22;1704568;84;21053;-69
2022/08/28 05:13:07;;;;;;;38.38;13.25;;;;;;;19.55;70.79;99640.01;1704655;84;21545;-69
2022/08/28 05:15:43;;;;;;;28.85;12.98;;;;;;;19.56;70.84;99637.72;1704386;84;21062;-70
2022/08/28 05:18:13;;;;;;;27.40;12.78;;;;;;;19.61;70.55;99640.84;1704561;84;21122;-69
2022/08/28 05:20:43;;;;;;;27.70;11.05;;;;;;;19.66;70.44;99637.30;1704482;84;21010;-68
2022/08/28 05:23:11;;;;;;;25.67;11.37;;;;;;;19.71;69.98;99639.12;1704880;84;21050;-70
2022/08/28 05:25:41;;;;;;;26.15;12.07;;;;;;;19.75;69.91;99633.91;1704793;84;21152;-69
2022/08/28 05:28:08;;;;;;;23.05;11.25;;;;;;;19.77;70.08;99636.45;1705083;84;21037;-68
2022/08/28 05:30:36;;;;;;;26.00;11.22;;;;;;;19.77;70.41;99635.96;1704735;84;21082;-70
2022/08/28 05:33:04;;;;;;;23.27;10.78;;;;;;;19.80;70.42;99630.35;1705014;84;21549;-69
2022/08/28 05:35:40;;;;;;;30.50;11.10;;;;;;;19.83;70.33;99630.12;1704047;84;21061;-70
2022/08/28 05:38:07;;;;;;;24.25;11.45;;;;;;;19.83;69.90;99628.78;1716716;83;21057;-68
2022/08/28 05:40:43;;;;;;;32.53;12.88;;;;;;;19.87;69.90;99630.20;1718057;83;21073;-68
2022/08/28 05:43:12;;;;;;;26.90;11.28;;;;;;;19.90;69.33;99632.63;1718392;83;22016;-68
2022/08/28 05:45:38;;;;;;;38.08;12.40;;;;;;;19.93;68.74;99634.69;1718050;83;21049;-69
2022/08/28 05:48:05;;;;;;;26.12;12.03;;;;;;;19.93;69.22;99646.72;1718592;83;21041;-67
2022/08/28 05:50:32;;;;;;;34.05;12.85;;;;;;;19.90;69.75;99645.99;1717960;83;21132;-69
2022/08/28 05:53:00;;;;;;;34.67;12.37;;;;;;;19.91;71.61;99647.67;1718331;83;21013;-68
2022/08/28 05:55:26;;;;;;;41.30;12.47;;;;;;;19.93;72.39;99654.73;1747477;82;21222;-68
2022/08/28 05:57:53;;;;;;;31.65;12.70;;;;;;;19.93;73.27;99659.58;1747966;82;21006;-67
2022/08/28 06:00:20;;;;;;;26.90;11.28;;;;;;;19.99;74.27;99652.86;1748149;82;21092;-68
2022/08/28 06:02:47;;;;;;;23.40;10.05;;;;;;;20.04;74.44;99656.02;1748231;81;21033;-68
2022/08/28 06:05:14;;;;;;;35.03;10.48;;;;;;;20.07;71.37;99657.09;1748464;82;21069;-67
2022/08/28 06:07:42;;;;;;;22.13;9.10;;;;;;;20.07;69.65;99658.42;1748285;81;21127;-69
2022/08/28 06:10:09;;;;;;;31.25;10.75;;;;;;;20.07;70.71;99657.09;1748159;82;21029;-68
2022/08/28 06:12:36;;;;;;;29.20;10.95;;;;;;;20.08;71.57;99658.77;1748161;82;21988;-68
2022/08/28 06:15:04;;;;;;;21.02;10.03;;;;;;;20.10;71.30;99659.49;1748139;82;21081;-68
2022/08/28 06:17:33;;;;;;;23.65;9.25;;;;;;;20.09;70.30;99665.83;1748398;81;21056;-69
2022/08/28 06:20:02;;;;;;;25.95;11.15;;;;;;;20.12;71.47;99668.23;1721434;82;21220;-69
2022/08/28 06:22:29;;;;;;;25.12;11.25;;;;;;;20.14;71.77;99662.28;1748165;81;21057;-68
2022/08/28 06:24:57;;;;;;;24.52;10.98;;;;;;;20.14;72.05;99664.95;1748238;81;21104;-69
2022/08/28 06:27:23;;;;;;;25.57;10.88;;;;;;;20.17;70.88;99669.19;1748440;82;21018;-68
2022/08/28 06:29:50;;;;;;;33.73;10.35;;;;;;;20.21;70.77;99674.64;1748290;82;21018;-68
2022/08/28 06:32:16;;;;;;;31.37;10.80;;;;;;;20.27;71.79;99679.48;1748381;82;21234;-69
2022/08/28 06:34:43;;;;;;;31.82;9.60;;;;;;;20.33;69.02;99671.75;1748115;82;21029;-67
2022/08/28 06:37:09;;;;;;;26.00;9.00;;;;;;;20.40;68.57;99673.92;1748108;81;21005;-68
2022/08/28 06:39:36;;;;;;;23.38;8.70;;;;;;;20.43;67.72;99672.30;1748142;82;21053;-68
2022/08/28 06:42:04;;;;;;;25.48;9.25;;;;;;;20.46;67.15;99680.09;1748561;81;21105;-68
2022/08/28 06:44:32;;;;;;;20.82;9.13;;;;;;;20.48;67.39;99679.47;1748304;82;21621;-69
2022/08/28 06:46:59;;;;;;;33.83;9.85;;;;;;;20.54;67.38;99678.92;1748285;82;21009;-68
2022/08/28 06:49:26;;;;;;;28.65;9.95;;;;;;;20.60;68.14;99668.23;1748064;81;21092;-68
2022/08/28 06:51:54;;;;;;;29.60;9.70;;;;;;;20.71;67.47;99677.03;1748474;81;21096;-70
2022/08/28 06:54:21;;;;;;;39.33;9.10;;;;;;;20.80;67.18;99679.41;1748608;81;21037;-69
2022/08/28 06:56:48;;;;;;;37.63;9.88;;;;;;;20.89;67.42;99679.06;1748099;82;21884;-68
2022/08/28 06:59:15;;;;;;;25.85;10.05;;;;;;;21.02;67.51;99677.02;1748170;82;21483;-69
2022/08/28 07:01:42;;;;;;;21.37;9.48;;;;;;;21.12;66.75;99673.06;1748063;82;21054;-67
2022/08/28 07:04:10;;;;;;;25.72;9.85;;;;;;;21.20;66.21;99675.05;1748533;82;21022;-68
2022/08/28 07:06:39;;;;;;;27.93;9.23;;;;;;;21.30;65.38;99677.26;1748134;81;21564;-68
2022/08/28 07:09:07;;;;;;;28.30;9.65;;;;;;;21.39;65.26;99680.45;1748525;82;21116;-69
2022/08/28 07:11:35;;;;;;;29.98;9.08;;;;;;;21.49;64.51;99672.00;1748191;82;21029;-70
2022/08/28 07:14:01;;;;;;;23.90;8.20;;;;;;;21.63;64.04;99683.31;1748207;82;21545;-68
2022/08/28 07:16:33;;;;;;;21.65;9.30;;;;;;;21.73;63.21;99674.27;1748050;81;21097;-69
2022/08/28 07:19:03;;;;;;;25.45;8.88;;;;;;;21.85;63.02;99668.28;1748336;82;21058;-70
2022/08/28 07:21:29;;;;;;;29.87;9.00;;;;;;;22.02;62.61;99672.12;1747848;82;21126;-68
2022/08/28 07:23:56;;;;;;;27.77;9.05;;;;;;;22.23;61.88;99677.36;1748108;82;21065;-68
2022/08/28 07:26:24;;;;;;;38.20;9.83;;;;;;;22.35;60.57;99674.86;1748523;82;21065;-68
2022/08/28 07:28:52;;;;;;;32.93;8.90;;;;;;;22.50;61.05;99667.70;1748232;81;21033;-71
2022/08/28 07:31:23;;;;;;;21.30;9.20;;;;;;;22.70;59.48;99663.13;1748168;82;21101;-68
2022/08/28 07:33:49;;;;;;;20.35;8.65;;;;;;;22.88;59.46;99660.03;1748374;81;21088;-67
2022/08/28 07:36:19;;;;;;;23.67;8.98;;;;;;;23.14;59.12;99656.70;1748168;82;21041;-69
2022/08/28 07:38:46;;;;;;;29.45;9.28;;;;;;;23.50;57.39;99660.31;1748088;81;21624;-68
2022/08/28 07:41:19;;;;;;;30.32;9.90;;;;;;;23.88;57.03;99654.36;1747797;82;21162;-69
2022/08/28 07:46:31;;;;;;;25.90;9.58;;;;;;;24.40;55.02;99648.20;1748428;82;21481;-68
2022/08/28 07:48:57;;;;;;;27.95;9.35;;;;;;;24.53;54.41;99639.25;1748388;82;21056;-69
2022/08/28 07:51:25;;;;;;;20.23;8.58;;;;;;;24.70;54.62;99645.56;1747830;82;21104;-69
2022/08/28 07:53:53;;;;;;;32.60;9.40;;;;;;;24.93;53.75;99646.36;1748188;82;21182;-69
2022/08/28 07:56:20;;;;;;;29.02;9.40;;;;;;;25.22;52.91;99645.50;1747744;81;21525;-69
2022/08/28 07:58:47;;;;;;;27.52;8.88;;;;;;;25.50;51.88;99646.59;1748188;82;22267;-69
2022/08/28 08:01:16;;;;;;;32.65;9.83;;;;;;;25.77;50.39;99651.34;1748394;81;21061;-68
2022/08/28 08:03:43;;;;;;;30.50;9.00;;;;;;;26.01;49.77;99638.44;1748125;82;21041;-69
2022/08/28 08:06:12;;;;;;;25.45;8.75;;;;;;;26.21;48.74;99641.64;1747858;82;21538;-68
2022/08/28 08:08:38;;;;;;;33.83;8.95;;;;;;;26.37;48.30;99633.53;1748176;81;21081;-68
2022/08/28 08:11:09;;;;;;;34.53;8.43;;;;;;;26.53;48.04;99645.64;1748196;82;22180;-69
2022/08/28 08:13:37;;;;;;;27.45;8.73;;;;;;;26.74;47.62;99638.88;1748326;81;21037;-69
2022/08/28 08:16:13;;;;;;;26.33;7.83;;;;;;;26.99;46.32;99640.48;1748369;82;21018;-69
2022/08/28 08:18:40;;;;;;;23.00;7.62;;;;;;;27.25;45.95;99643.95;1748072;81;21700;-69
2022/08/28 08:21:09;;;;;;;26.23;7.45;;;;;;;27.54;45.15;99642.78;1748313;82;21584;-68
2022/08/28 08:23:37;;;;;;;32.65;7.33;;;;;;;27.96;43.93;99642.02;1748047;82;22195;-69
2022/08/28 08:26:08;;;;;;;26.25;7.78;;;;;;;28.23;42.69;99641.96;1747821;82;21014;-70
2022/08/28 08:28:36;;;;;;;31.00;9.03;;;;;;;28.33;40.92;99636.28;1748024;81;21795;-70
2022/08/28 08:31:19;;;;;;;31.17;8.25;;;;;;;28.21;41.20;99639.42;1748158;81;21073;-69
2022/08/28 08:33:53;;;;;;;25.52;8.10;;;;;;;28.14;42.12;99638.48;1748320;82;21061;-70
2022/08/28 08:36:21;;;;;;;26.55;7.70;;;;;;;28.30;41.82;99636.14;1720591;82;21231;-70
2022/08/28 08:38:49;;;;;;;25.92;7.78;;;;;;;28.56;41.33;99628.95;1748121;81;21029;-69
2022/08/28 08:41:32;;;;;;;22.67;7.03;;;;;;;28.84;40.28;99631.02;1747934;82;21493;-68
2022/08/28 08:44:27;;;;;;;40.25;8.28;;;;;;;28.99;40.60;99629.16;1748250;82;21025;-69
2022/08/28 08:47:25;;;;;;;33.10;8.50;;;;;;;29.05;39.63;99625.66;1747898;82;21091;-71
2022/08/28 08:50:02;;;;;;;26.12;7.50;;;;;;;29.05;39.63;99625.66;1747604;82;21206;-69
2022/08/28 08:53:08;;;;;;;27.70;7.85;;;;;;;28.89;40.21;99621.80;1748090;81;21115;-68
2022/08/28 08:55:42;;;;;;;22.55;8.08;;;;;;;29.06;39.99;99621.11;1718179;83;21053;-69
2022/08/28 08:58:17;;;;;;;30.82;8.40;;;;;;;29.37;39.68;99622.23;1718562;83;22132;-69
2022/08/28 09:00:57;;;;;;;29.23;8.65;;;;;;;29.71;39.88;99619.39;1717201;83;21081;-71
2022/08/28 09:03:29;;;;;;;31.68;8.43;;;;;;;30.37;38.96;99615.59;1718513;83;21899;-70
2022/08/28 09:06:03;;;;;;;24.45;9.15;;;;;;;30.96;37.49;99611.06;1663479;83;21592;-69
2022/08/28 09:08:35;;;;;;;35.35;10.03;;;;;;;31.45;37.00;99614.63;1718380;83;21052;-71
2022/08/28 09:11:07;;;;;;;37.70;9.33;;;;;;;31.88;35.94;99615.66;1717818;83;21049;-69
2022/08/28 09:13:43;;;;;;;26.60;8.15;;;;;;;31.91;35.24;99614.72;1639761;83;21061;-69
2022/08/28 09:16:24;;;;;;;26.93;8.28;;;;;;;31.91;34.94;99610.64;1715457;83;21147;-70
2022/08/28 09:18:50;;;;;;;27.85;7.80;;;;;;;32.22;34.06;99607.83;1717721;83;21572;-68
2022/08/28 09:21:28;;;;;;;25.68;7.87;;;;;;;32.57;33.72;99604.87;1718264;83;21577;-69
2022/08/28 09:23:54;;;;;;;30.85;7.87;;;;;;;32.87;32.36;99604.37;1718283;83;21072;-69
2022/08/28 09:26:23;;;;;;;20.95;7.37;;;;;;;33.08;31.33;99607.38;1718566;83;21061;-69
2022/08/28 09:29:03;;;;;;;24.10;7.75;;;;;;;33.33;31.69;99607.46;1718217;83;21592;-70
2022/08/28 09:31:37;;;;;;;22.25;7.47;;;;;;;33.58;30.89;99602.93;1717876;83;21037;-69
2022/08/28 09:34:23;;;;;;;25.95;7.50;;;;;;;33.63;30.61;99605.83;1718459;83;21101;-68
2022/08/28 09:36:51;;;;;;;21.05;7.50;;;;;;;33.53;30.82;99602.73;1718108;83;21010;-70
2022/08/28 09:39:26;;;;;;;24.75;7.67;;;;;;;33.23;30.80;99603.31;1706676;83;21057;-70
2022/08/28 09:45:20;;;;;;;19.60;7.12;;;;;;;32.15;31.76;99608.37;1704637;84;21589;-69
2022/08/28 09:47:55;;;;;;;24.10;7.58;;;;;;;31.76;32.89;99609.98;1704964;84;21053;-69
2022/08/28 09:52:43;;;;;;;23.25;7.12;;;;;;;31.46;33.39;99602.18;1814320;79;23270;-69
2022/08/28 09:55:11;;;;;;;17.37;7.03;;;;;;;31.43;33.35;99602.61;1739919;80;21589;-68
2022/08/28 09:57:39;;;;;;;22.30;7.25;;;;;;;31.47;33.56;99601.16;1720126;83;21120;-69
2022/08/28 10:00:07;;;;;;;28.05;8.05;;;;;;;31.73;33.83;99594.08;1720600;82;21073;-69
2022/08/28 10:03:13;;;;;;;26.33;7.45;;;;;;;32.13;32.46;99592.75;1720168;83;21076;-69
2022/08/28 10:05:52;;;;;;;23.15;7.47;;;;;;;32.31;32.09;99588.86;1720470;83;21037;-71
2022/08/28 10:08:36;;;;;;;26.17;7.00;;;;;;;32.70;31.51;99591.75;1720532;83;21607;-69
2022/08/28 10:11:24;;;;;;;20.02;6.53;;;;;;;33.04;30.52;99594.67;1718139;83;21148;-68
2022/08/28 10:14:05;;;;;;;16.30;5.90;;;;;;;33.36;30.61;99599.69;1642804;86;21064;-68
2022/08/28 10:16:35;;;;;;;;;;;;;;;33.94;29.33;99598.70;1666134;86;21038;-69
2022/08/28 10:19:13;;;;;;;10.48;3.80;;;;;;;34.35;24.27;99589.13;1663692;86;20231;-70
2022/08/28 10:21:52;;;;;;;8.88;3.37;;;;;;;34.69;24.27;99589.61;1663055;86;21091;-70
2022/08/28 10:24:49;;;;;;;11.68;3.98;;;;;;;35.03;23.95;99589.52;1662900;86;21944;-70
2022/08/28 10:27:33;;;;;;;12.33;4.05;;;;;;;35.14;23.97;99592.59;1663175;86;21033;-70
2022/08/28 10:30:16;;;;;;;17.27;4.05;;;;;;;35.04;24.22;99579.41;1663670;86;21068;-71
2022/08/28 10:33:00;;;;;;;11.57;3.87;;;;;;;34.94;24.21;99585.97;1663660;86;21052;-68
2022/08/28 10:35:41;;;;;;;10.82;4.05;;;;;;;34.63;24.04;99587.81;1663950;86;21113;-70
2022/08/28 10:38:13;;;;;;;11.78;4.10;;;;;;;34.22;24.87;99582.41;1661816;86;21111;-69
2022/08/28 10:40:54;;;;;;;9.85;3.90;;;;;;;34.06;24.69;99579.68;1663488;86;21096;-68
2022/08/28 10:43:42;;;;;;;9.28;3.77;;;;;;;34.25;25.14;99574.58;1663934;86;21104;-70
2022/08/28 10:46:17;;;;;;;12.85;4.12;;;;;;;34.31;24.12;99581.06;1663260;86;21081;-71
2022/08/28 10:48:49;;;;;;;9.38;3.90;;;;;;;34.21;24.79;99584.82;1663561;86;21021;-70
2022/08/28 10:51:49;;;;;;;9.50;4.03;;;;;;;34.23;23.71;99582.20;1659712;86;21819;-69
2022/08/28 10:54:46;;;;;;;11.45;3.80;;;;;;;34.46;23.68;99581.55;1704582;82;21513;-69
2022/08/28 10:57:53;;;;;;;14.80;4.45;;;;;;;34.83;23.05;99574.75;1724028;82;21072;-70
2022/08/28 11:00:22;;;;;;;9.28;4.20;;;;;;;34.76;24.25;99583.53;1743107;82;21080;-70
2022/08/28 11:03:08;;;;;;;14.15;4.37;;;;;;;34.41;23.83;99586.83;1742927;82;21022;-70
2022/08/28 11:06:02;;;;;;;17.42;4.62;;;;;;;34.16;24.62;99591.49;1742577;82;21586;-70
2022/08/28 11:08:34;;;;;;;9.73;4.25;;;;;;;34.16;24.82;99593.69;1742468;82;21130;-69
2022/08/28 11:11:02;;;;;;;15.60;4.65;;;;;;;34.15;24.66;99596.66;1742714;82;21045;-71
2022/08/28 11:13:58;;;;;;;13.48;4.25;;;;;;;33.99;25.47;99601.59;1742631;82;21633;-70
2022/08/28 11:16:35;;;;;;;15.85;4.55;;;;;;;33.84;25.32;99596.97;1742482;82;21049;-70
2022/08/28 11:19:13;;;;;;;16.50;4.75;;;;;;;33.66;25.49;99599.63;1742687;82;21791;-69
2022/08/28 11:21:45;;;;;;;12.35;4.80;;;;;;;33.44;25.94;99594.49;1742457;82;21034;-69
2022/08/28 11:24:50;;;;;;;9.90;4.03;;;;;;;33.27;25.91;99596.91;1742789;82;21082;-69
2022/08/28 11:27:29;;;;;;;18.42;5.17;;;;;;;32.87;25.90;99600.29;1742745;82;21578;-68
2022/08/28 11:30:16;;;;;;;14.53;5.40;;;;;;;32.44;26.97;99611.67;1742708;82;21589;-70
2022/08/28 11:32:54;;;;;;;12.20;5.12;;;;;;;32.20;27.78;99607.20;1742852;82;22110;-70
2022/08/28 11:35:47;;;;;;;20.45;5.72;;;;;;;31.98;28.11;99610.15;1742733;82;21026;-70
2022/08/28 11:38:45;;;;;;;15.08;6.12;;;;;;;31.86;28.57;99613.13;1742703;82;21101;-69
2022/08/28 11:41:20;;;;;;;14.45;5.67;;;;;;;31.71;29.02;99609.78;1742446;82;21014;-68
2022/08/28 11:43:45;;;;;;;18.07;5.50;;;;;;;31.47;29.24;99616.12;1742643;82;21008;-69
2022/08/28 11:46:30;;;;;;;14.53;6.20;;;;;;;31.27;29.86;99619.27;1742480;82;21249;-69
2022/08/28 11:48:58;;;;;;;15.35;6.22;;;;;;;31.05;30.75;99619.37;1742957;82;21041;-69
2022/08/28 11:51:49;;;;;;;16.87;6.78;;;;;;;30.88;31.23;99623.48;1721606;82;21061;-69